Time;durP1;ratioP1;P1;durP2;ratioP2;P2;SDS_P1;SDS_P2;PMS_P1;PMS_P2;Temp;Humidity;BMP_temperature;BMP_pressure;BME280_temperature;BME280_humidity;BME280_pressure;Samples;Min_cycle;Max_cycle;Signal;HPM_P1;HPM_P2
2022/04/29 00:02:46;;;;;;;1.33;0.95;;;14.60;58.10;;;;;;20557593;28;20480;-72
2022/04/29 00:12:48;;;;;;;2.22;1.05;;;14.60;58.10;;;;;;20553388;28;20041;-72
2022/04/29 00:22:48;;;;;;;1.20;0.90;;;14.60;58.10;;;;;;20536155;28;20542;-71
2022/04/29 00:32:49;;;;;;;1.17;1.02;;;14.60;58.00;;;;;;20566321;28;20039;-71
2022/04/29 00:42:49;;;;;;;0.98;0.75;;;14.60;58.00;;;;;;20550103;28;20034;-71
2022/04/29 00:52:51;;;;;;;3.03;1.50;;;14.50;57.90;;;;;;20549845;28;20118;-72
2022/04/29 01:02:52;;;;;;;1.60;1.17;;;14.50;57.90;;;;;;20517376;28;20120;-71
2022/04/29 01:12:57;;;;;;;1.95;1.30;;;14.50;57.80;;;;;;20529361;28;20042;-71
2022/04/29 01:22:58;;;;;;;1.65;1.15;;;14.50;57.80;;;;;;20530870;28;20067;-71
2022/04/29 01:33:00;;;;;;;3.63;1.48;;;14.50;57.80;;;;;;20562231;28;20133;-71
2022/04/29 01:43:02;;;;;;;1.55;1.00;;;14.50;57.80;;;;;;20530287;28;20042;-71
2022/04/29 01:53:03;;;;;;;1.77;1.00;;;14.40;57.70;;;;;;20530864;28;20038;-72
2022/04/29 02:03:04;;;;;;;2.03;1.00;;;14.40;57.60;;;;;;20546184;28;20085;-72
2022/04/29 02:13:04;;;;;;;3.03;1.20;;;14.40;57.60;;;;;;20544708;28;20381;-71
2022/04/29 02:23:16;;;;;;;0.88;0.70;;;14.40;57.60;;;;;;20538928;28;21023;-71
2022/04/29 02:33:16;;;;;;;1.40;0.90;;;14.40;57.50;;;;;;20544753;28;20134;-72
2022/04/29 02:43:17;;;;;;;1.73;1.00;;;14.40;57.50;;;;;;21001996;23;20456;-77
2022/04/29 02:53:19;;;;;;;2.22;0.90;;;14.30;58.10;;;;;;20655092;28;20038;-76
2022/04/29 03:03:20;;;;;;;1.48;0.90;;;14.30;57.40;;;;;;20654207;28;20030;-77
2022/04/29 03:13:21;;;;;;;2.45;0.93;;;14.30;57.40;;;;;;20634055;28;20031;-76
2022/04/29 03:23:29;;;;;;;2.72;1.20;;;14.30;57.40;;;;;;20711636;28;20058;-76
2022/04/29 03:33:29;;;;;;;2.17;0.80;;;14.30;57.40;;;;;;20749204;28;20519;-77
2022/04/29 03:43:30;;;;;;;1.52;0.85;;;14.30;57.40;;;;;;20732344;28;20030;-76
2022/04/29 03:53:31;;;;;;;2.15;1.23;;;14.20;57.40;;;;;;20715861;28;20172;-76
2022/04/29 04:03:36;;;;;;;3.45;1.10;;;14.30;57.40;;;;;;20715493;28;20026;-77
2022/04/29 04:13:43;;;;;;;;;;;14.20;57.40;;;;;;20715682;28;20072;-78
2022/04/29 04:24:06;;;;;;;1.40;1.00;;;14.10;57.30;;;;;;20698916;28;20279;-73
2022/04/29 04:44:26;;;;;;;2.42;0.80;;;14.20;57.30;;;;;;20622543;28;20165;-76
2022/04/29 04:54:27;;;;;;;2.85;0.98;;;14.20;57.40;;;;;;20551001;28;20126;-73
2022/04/29 05:04:28;;;;;;;4.35;1.17;;;14.10;57.30;;;;;;20635354;28;20062;-75
2022/04/29 05:14:28;;;;;;;2.42;1.10;;;14.20;57.40;;;;;;20659135;28;20072;-75
2022/04/29 05:24:30;;;;;;;2.40;1.10;;;14.20;57.40;;;;;;20645752;28;20079;-77
2022/04/29 05:34:49;;;;;;;2.30;1.08;;;14.10;57.50;;;;;;20663320;28;20042;-78
2022/04/29 05:45:08;;;;;;;7.18;1.13;;;14.10;57.60;;;;;;20635808;28;20034;-77
2022/04/29 05:55:11;;;;;;;3.72;1.00;;;14.10;57.70;;;;;;20638509;28;20040;-78
2022/04/29 06:05:13;;;;;;;2.40;1.23;;;14.10;57.70;;;;;;20663027;28;20396;-77
2022/04/29 06:15:16;;;;;;;3.25;1.17;;;14.10;57.80;;;;;;20661621;28;20044;-75
2022/04/29 06:25:37;;;;;;;4.63;1.20;;;14.10;57.80;;;;;;20660450;28;20030;-76
2022/04/29 06:35:39;;;;;;;2.83;1.35;;;14.10;58.00;;;;;;20671239;28;20128;-76
2022/04/29 06:45:41;;;;;;;1.80;1.10;;;14.10;58.00;;;;;;20709693;28;20485;-76
2022/04/29 06:56:13;;;;;;;2.30;1.10;;;14.10;58.10;;;;;;20569734;28;20049;-77
2022/04/29 07:06:13;;;;;;;2.15;1.35;;;14.10;58.20;;;;;;20560443;28;20070;-77
2022/04/29 07:16:15;;;;;;;2.17;1.15;;;14.10;58.30;;;;;;20593135;28;20504;-77
2022/04/29 07:26:48;;;;;;;2.05;1.20;;;14.10;58.40;;;;;;20670786;28;20061;-77
2022/04/29 07:47:12;;;;;;;2.53;0.98;;;14.20;58.60;;;;;;20599379;28;20089;-75
2022/04/29 07:57:20;;;;;;;2.47;1.55;;;14.20;58.70;;;;;;20648768;28;20501;-73
2022/04/29 08:07:24;;;;;;;3.15;1.35;;;14.20;58.70;;;;;;20612087;28;20121;-78
2022/04/29 08:17:25;;;;;;;2.28;1.00;;;14.20;58.80;;;;;;20626415;28;20038;-76
2022/04/29 08:27:28;;;;;;;7.15;1.45;;;14.20;58.80;;;;;;20662065;28;20080;-76
2022/04/29 08:37:28;;;;;;;1.35;0.80;;;14.20;58.90;;;;;;20562076;28;20404;-77
2022/04/29 08:47:30;;;;;;;1.52;1.00;;;14.20;58.90;;;;;;20617605;28;20125;-78
2022/04/29 09:08:01;;;;;;;1.55;0.88;;;14.30;58.90;;;;;;20643216;28;20034;-79
2022/04/29 09:18:02;;;;;;;1.13;0.85;;;14.40;59.00;;;;;;20623798;28;20481;-79
2022/04/29 09:28:04;;;;;;;1.50;0.80;;;14.40;59.10;;;;;;20621098;28;20054;-78
2022/04/29 09:49:09;;;;;;;3.42;1.13;;;14.40;59.10;;;;;;20650353;28;20042;-79
2022/04/29 09:59:25;;;;;;;0.95;0.65;;;14.40;59.10;;;;;;20629746;28;20042;-78
2022/04/29 10:09:28;;;;;;;;;;;14.40;59.10;;;;;;20642121;28;20662;-78
2022/04/29 10:30:00;;;;;;;1.65;0.70;;;14.40;59.00;;;;;;20654924;28;20523;-77
2022/04/29 10:40:09;;;;;;;0.90;0.70;;;14.40;58.90;;;;;;20612870;28;20046;-78
2022/04/29 10:50:28;;;;;;;0.75;0.70;;;14.50;58.90;;;;;;20625850;28;20042;-79
2022/04/29 11:01:20;;;;;;;1.23;0.90;;;14.50;59.00;;;;;;20591780;28;20504;-75
2022/04/29 11:11:20;;;;;;;2.72;1.10;;;14.50;59.00;;;;;;20619747;28;20030;-80
2022/04/29 11:32:24;;;;;;;2.20;0.63;;;14.50;58.80;;;;;;20578335;28;20045;-73
2022/04/29 11:42:25;;;;;;;1.08;0.85;;;14.50;58.80;;;;;;20622923;28;20039;-73
2022/04/29 11:52:27;;;;;;;2.83;1.13;;;14.60;58.80;;;;;;20571084;28;20046;-79
2022/04/29 12:02:28;;;;;;;2.75;0.80;;;14.60;58.80;;;;;;20622732;28;20281;-73
2022/04/29 12:12:30;;;;;;;6.75;2.38;;;14.60;58.80;;;;;;20643536;28;20088;-75
2022/04/29 12:22:37;;;;;;;4.55;2.30;;;14.70;57.90;;;;;;20639429;28;20030;-76
2022/04/29 12:43:14;;;;;;;3.53;1.63;;;15.00;55.40;;;;;;20659780;28;20034;-74
2022/04/29 12:53:16;;;;;;;3.90;1.48;;;15.00;55.80;;;;;;20634550;28;20531;-73
2022/04/29 13:03:19;;;;;;;3.55;1.20;;;15.00;56.20;;;;;;20542681;28;20099;-75
2022/04/29 13:13:22;;;;;;;4.38;1.63;;;14.90;56.60;;;;;;20545261;28;20030;-74
2022/04/29 13:23:22;;;;;;;3.63;1.30;;;15.00;57.00;;;;;;20614016;28;20042;-74
2022/04/29 13:33:30;;;;;;;3.40;1.17;;;15.00;57.10;;;;;;20626610;28;20035;-74
2022/04/29 13:43:34;;;;;;;4.10;1.15;;;15.10;57.30;;;;;;20620843;28;20073;-74
2022/04/29 13:53:37;;;;;;;1.92;1.38;;;15.10;57.20;;;;;;20545658;28;20133;-76
2022/04/29 14:03:37;;;;;;;4.28;2.15;;;15.10;56.70;;;;;;20589446;28;20046;-75
2022/04/29 14:13:38;;;;;;;2.58;1.50;;;15.10;56.70;;;;;;20618489;28;20550;-75
2022/04/29 14:23:39;;;;;;;16.35;2.33;;;15.10;56.70;;;;;;20573243;28;20117;-75
2022/04/29 14:33:40;;;;;;;2.50;1.20;;;15.10;56.70;;;;;;20605003;28;20042;-75
2022/04/29 14:43:41;;;;;;;7.03;1.30;;;15.10;56.90;;;;;;20644678;28;20125;-73
2022/04/29 14:53:41;;;;;;;2.38;1.08;;;15.10;56.90;;;;;;20749643;28;20037;-75
2022/04/29 15:03:42;;;;;;;3.05;1.23;;;15.10;57.10;;;;;;20692482;28;20615;-77
2022/04/29 15:24:02;;;;;;;2.83;1.20;;;15.20;57.30;;;;;;20647644;28;20045;-72
2022/04/29 15:34:02;;;;;;;3.35;1.30;;;15.20;57.40;;;;;;20582746;28;20045;-74
2022/04/29 15:44:03;;;;;;;4.15;1.50;;;15.20;57.50;;;;;;20706905;28;20050;-74
2022/04/29 15:54:04;;;;;;;5.18;1.63;;;15.30;57.50;;;;;;20589154;28;20042;-75
2022/04/29 16:04:04;;;;;;;3.70;1.67;;;15.30;57.50;;;;;;20549570;28;20129;-75
2022/04/29 16:14:05;;;;;;;2.35;1.60;;;15.40;57.50;;;;;;20551237;28;20038;-76
2022/04/29 16:34:25;;;;;;;7.18;2.15;;;15.20;57.30;;;;;;20582640;28;20038;-74
2022/04/29 16:44:28;;;;;;;5.78;2.03;;;15.20;57.10;;;;;;20552727;28;20023;-74
2022/04/29 16:54:29;;;;;;;5.35;2.15;;;15.20;57.80;;;;;;20646355;28;20691;-75
2022/04/29 17:04:30;;;;;;;4.25;1.80;;;15.20;57.20;;;;;;20597737;28;20026;-74
2022/04/29 17:14:32;;;;;;;5.30;1.40;;;15.20;57.40;;;;;;20622319;28;20685;-74
2022/04/29 17:24:32;;;;;;;10.80;2.10;;;15.20;57.50;;;;;;20623412;28;20146;-73
2022/04/29 17:34:36;;;;;;;3.80;1.75;;;15.20;57.60;;;;;;20620581;28;20523;-78
2022/04/29 17:44:36;;;;;;;3.45;1.98;;;15.10;57.70;;;;;;20622395;28;20034;-74
2022/04/29 17:54:37;;;;;;;6.43;1.23;;;15.10;57.80;;;;;;20669443;28;20491;-77
2022/04/29 18:04:37;;;;;;;1.80;1.10;;;15.10;57.90;;;;;;20739231;28;20034;-74
2022/04/29 18:14:39;;;;;;;2.50;1.38;;;15.10;57.90;;;;;;20674421;28;20041;-75
2022/04/29 18:24:40;;;;;;;1.27;1.10;;;15.10;58.00;;;;;;20703674;28;20046;-78
2022/04/29 18:34:41;;;;;;;2.80;1.15;;;15.00;58.00;;;;;;20737993;28;20038;-77
2022/04/29 18:44:41;;;;;;;3.53;1.10;;;15.00;58.10;;;;;;20692016;28;20496;-77
2022/04/29 18:54:43;;;;;;;1.52;1.08;;;15.00;58.10;;;;;;20656148;28;20058;-77
2022/04/29 19:04:44;;;;;;;1.43;1.00;;;15.00;58.30;;;;;;20663799;28;20061;-80
2022/04/29 19:14:44;;;;;;;2.55;1.45;;;15.00;58.40;;;;;;20611048;28;20298;-77
2022/04/29 19:24:45;;;;;;;1.77;1.17;;;15.10;58.50;;;;;;20652449;28;20035;-78
2022/04/29 19:34:45;;;;;;;1.83;0.80;;;15.00;58.50;;;;;;20654858;28;20121;-81
2022/04/29 19:44:46;;;;;;;2.75;0.93;;;15.00;58.50;;;;;;20654739;28;20026;-80
2022/04/29 19:54:46;;;;;;;2.77;1.20;;;15.00;58.70;;;;;;20648519;28;20457;-79
2022/04/29 20:04:47;;;;;;;1.63;0.95;;;15.00;58.80;;;;;;20642485;28;20382;-80
2022/04/29 20:14:48;;;;;;;4.35;1.52;;;14.90;58.80;;;;;;20646553;28;20038;-80
2022/04/29 20:24:49;;;;;;;1.90;1.25;;;14.90;58.80;;;;;;20631151;28;20050;-82
2022/04/29 20:34:49;;;;;;;2.22;1.75;;;14.90;58.70;;;;;;20613199;28;20065;-75
2022/04/29 20:44:50;;;;;;;4.45;1.25;;;14.90;58.60;;;;;;20659561;28;20041;-75
2022/04/29 20:54:52;;;;;;;1.50;1.02;;;14.90;58.70;;;;;;20661479;28;20064;-74
2022/04/29 21:04:52;;;;;;;2.15;1.27;;;14.90;58.70;;;;;;20619609;28;20545;-75
2022/04/29 21:14:53;;;;;;;2.20;1.20;;;14.90;58.50;;;;;;20626418;28;20046;-74
2022/04/29 21:24:56;;;;;;;2.05;1.15;;;14.90;58.50;;;;;;20627139;28;20365;-74
2022/04/29 21:34:56;;;;;;;1.55;0.98;;;14.90;58.60;;;;;;20658045;28;20125;-74
2022/04/29 21:44:58;;;;;;;1.90;1.10;;;14.90;58.70;;;;;;20657710;28;20583;-73
2022/04/29 21:54:59;;;;;;;3.20;1.48;;;14.80;58.60;;;;;;20659050;28;20078;-73
2022/04/29 22:05:01;;;;;;;1.88;1.10;;;14.80;58.70;;;;;;20616925;28;20506;-74
2022/04/29 22:15:02;;;;;;;1.90;1.27;;;14.80;58.70;;;;;;20640348;28;20610;-74
2022/04/29 22:25:04;;;;;;;2.15;1.27;;;14.80;58.70;;;;;;20640436;28;20038;-75
2022/04/29 22:35:05;;;;;;;3.83;1.67;;;14.80;58.70;;;;;;20632260;28;20050;-75
2022/04/29 22:45:07;;;;;;;1.70;1.08;;;14.80;58.70;;;;;;20672404;28;20396;-75
2022/04/29 22:55:08;;;;;;;1.65;1.27;;;14.70;58.70;;;;;;20654568;28;20050;-75
2022/04/29 23:05:10;;;;;;;5.25;1.60;;;14.70;58.70;;;;;;20645441;28;20038;-74
2022/04/29 23:15:12;;;;;;;2.40;1.20;;;14.70;58.70;;;;;;20588427;28;20047;-73
2022/04/29 23:25:14;;;;;;;2.50;1.48;;;14.70;58.70;;;;;;20571655;28;20027;-74
2022/04/29 23:35:15;;;;;;;1.83;1.40;;;14.70;58.70;;;;;;20602204;28;20065;-74
2022/04/29 23:45:15;;;;;;;3.22;1.65;;;14.70;58.60;;;;;;20650043;28;20121;-73
2022/04/29 23:55:17;;;;;;;3.13;1.70;;;14.70;58.60;;;;;;20648919;28;20125;-74
